Wetterdaten: Woche 17.06.02 - 23.06.02 (KW25)
Datum Zeit Temperatur Luftfeuchte Luftdruck Regenmenge Wind Richtung Taupunkt Windchill
17.06.2002 00:00 18.2 C 85 % 1020.1 hPa 0.0 l/m 1.3 km/h (1 Bft) O-SO 15.7 C 18.2 C
17.06.2002 01:00 17.4 C 88 % 1020.1 hPa 0.0 l/m 1.9 km/h (1 Bft) O-SO 15.4 C 17.4 C
17.06.2002 02:00 16.7 C 93 % 1020.1 hPa 0.0 l/m 0.0 km/h (0 Bft) N 15.5 C 16.7 C
17.06.2002 03:00 16.0 C 96 % 1020.1 hPa 0.0 l/m 0.0 km/h (0 Bft) N 15.4 C 16.0 C
17.06.2002 04:00 15.7 C 97 % 1019.9 hPa 0.0 l/m 1.3 km/h (1 Bft) O-SO 15.3 C 15.7 C
17.06.2002 05:00 15.5 C 98 % 1020.1 hPa 0.0 l/m 1.3 km/h (1 Bft) O-SO 15.2 C 15.5 C
17.06.2002 06:00 15.6 C 96 % 1020.1 hPa 0.0 l/m 0.3 km/h (0 Bft) O-SO 15.0 C 15.6 C
17.06.2002 07:00 17.2 C 93 % 1020.9 hPa 0.0 l/m 0.2 km/h (0 Bft) O-SO 16.0 C 17.2 C
17.06.2002 08:00 19.2 C 84 % 1021.1 hPa 0.0 l/m 0.1 km/h (0 Bft) S 16.4 C 19.2 C
17.06.2002 09:00 21.5 C 75 % 1021.1 hPa 0.0 l/m 0.7 km/h (0 Bft) W-NW 16.9 C 21.5 C
17.06.2002 10:00 24.4 C 65 % 1020.7 hPa 0.0 l/m 3.8 km/h (1 Bft) O-SO 17.4 C 24.4 C
17.06.2002 11:00 26.6 C 59 % 1020.3 hPa 0.0 l/m 4.5 km/h (1 Bft) O-SO 17.9 C 26.6 C
17.06.2002 12:00 28.6 C 51 % 1020.1 hPa 0.0 l/m 3.9 km/h (1 Bft) O-SO 17.4 C 28.6 C
17.06.2002 13:00 30.5 C 45 % 1019.8 hPa 0.0 l/m 5.6 km/h (1 Bft) O-SO 17.1 C 30.5 C
17.06.2002 14:00 32.7 C 33 % 1019.0 hPa 0.0 l/m 8.5 km/h (2 Bft) O-SO 14.1 C 32.7 C
17.06.2002 15:00 33.8 C 31 % 1018.8 hPa 0.0 l/m 6.3 km/h (2 Bft) O-SO 14.0 C 33.8 C
17.06.2002 16:00 34.7 C 30 % 1018.1 hPa 0.0 l/m 2.6 km/h (1 Bft) O-SO 14.7 C 34.7 C
17.06.2002 17:00 34.7 C 29 % 1018.0 hPa 0.0 l/m 0.6 km/h (0 Bft) O-SO 13.9 C 34.7 C
17.06.2002 18:00 34.5 C 35 % 1018.0 hPa 0.0 l/m 1.1 km/h (1 Bft) W-NW 16.7 C 34.5 C
17.06.2002 19:00 33.3 C 39 % 1018.0 hPa 0.0 l/m 0.1 km/h (0 Bft) O 17.5 C 33.3 C
17.06.2002 20:00 30.1 C 54 % 1018.0 hPa 0.0 l/m 0.0 km/h (0 Bft) N 19.6 C 30.1 C
17.06.2002 21:00 25.4 C 68 % 1018.0 hPa 0.0 l/m 2.6 km/h (1 Bft) O-SO 19.0 C 25.4 C
17.06.2002 22:00 22.6 C 77 % 1018.8 hPa 0.0 l/m 0.4 km/h (0 Bft) O-SO 18.4 C 22.6 C
17.06.2002 23:00 21.5 C 80 % 1019.0 hPa 0.0 l/m 2.2 km/h (1 Bft) O-SO 17.9 C 21.5 C
18.06.2002 00:00 20.1 C 86 % 1019.0 hPa 0.0 l/m 0.8 km/h (0 Bft) O-SO 17.7 C 20.1 C
18.06.2002 01:00 19.3 C 89 % 1019.0 hPa 0.0 l/m 0.4 km/h (0 Bft) O-SO 17.4 C 19.3 C
18.06.2002 02:00 18.5 C 93 % 1019.0 hPa 0.0 l/m 1.4 km/h (1 Bft) O-SO 17.4 C 18.5 C
18.06.2002 03:00 17.7 C 97 % 1019.0 hPa 0.0 l/m 0.3 km/h (0 Bft) O-SO 17.2 C 17.7 C
18.06.2002 04:00 17.2 C 99 % 1019.0 hPa 0.0 l/m 3.3 km/h (1 Bft) O-SO 17.0 C 17.2 C
18.06.2002 05:00 17.0 C 100 % 1019.4 hPa 0.0 l/m 2.8 km/h (1 Bft) O-SO 17.0 C 17.0 C
18.06.2002 06:00 17.3 C 96 % 1019.5 hPa 0.0 l/m 1.6 km/h (1 Bft) O-SO 16.7 C 17.3 C
18.06.2002 07:00 18.6 C 94 % 1020.1 hPa 0.0 l/m 0.0 km/h (0 Bft) N 17.6 C 18.6 C
18.06.2002 08:00 20.8 C 83 % 1019.3 hPa 0.0 l/m 0.1 km/h (0 Bft) N 17.7 C 20.8 C
18.06.2002 09:00 23.5 C 72 % 1019.0 hPa 0.0 l/m 3.6 km/h (1 Bft) O-SO 18.1 C 23.5 C
18.06.2002 10:00 26.2 C 61 % 1019.0 hPa 0.0 l/m 6.8 km/h (2 Bft) O-SO 18.0 C 26.2 C
18.06.2002 11:00 27.6 C 54 % 1018.9 hPa 0.0 l/m 0.6 km/h (0 Bft) O-SO 17.5 C 27.6 C
18.06.2002 12:00 29.5 C 47 % 1018.0 hPa 0.0 l/m 1.3 km/h (1 Bft) W-NW 17.1 C 29.5 C
18.06.2002 13:00 31.5 C 42 % 1017.7 hPa 0.0 l/m 2.8 km/h (1 Bft) W-NW 17.0 C 31.5 C
18.06.2002 14:00 33.4 C 35 % 1017.0 hPa 0.0 l/m 2.8 km/h (1 Bft) W-NW 15.8 C 33.4 C
18.06.2002 15:00 34.7 C 35 % 1017.0 hPa 0.0 l/m 2.3 km/h (1 Bft) W-NW 16.9 C 34.7 C
18.06.2002 16:00 34.8 C 30 % 1016.1 hPa 0.0 l/m 4.1 km/h (1 Bft) W-NW 14.8 C 34.8 C
18.06.2002 17:00 34.7 C 32 % 1016.5 hPa 0.0 l/m 7.1 km/h (2 Bft) NW 15.8 C 34.7 C
18.06.2002 18:00 34.8 C 35 % 1016.5 hPa 0.0 l/m 11.2 km/h (2 Bft) W-NW 16.9 C 34.8 C
18.06.2002 19:00 31.9 C 39 % 1017.0 hPa 0.0 l/m 20.8 km/h (4 Bft) NW 16.0 C 31.9 C
18.06.2002 20:00 30.8 C 44 % 1017.0 hPa 0.0 l/m 5.6 km/h (1 Bft) NW 17.1 C 30.8 C
18.06.2002 21:00 29.4 C 41 % 1018.0 hPa 0.0 l/m 8.4 km/h (2 Bft) NW 14.8 C 29.4 C
18.06.2002 22:00 27.2 C 43 % 1018.4 hPa 0.0 l/m 4.5 km/h (1 Bft) O-SO 13.3 C 27.2 C
18.06.2002 23:00 25.0 C 51 % 1019.0 hPa 0.0 l/m 5.7 km/h (1 Bft) O-SO 14.0 C 25.0 C
19.06.2002 00:00 23.5 C 61 % 1019.0 hPa 0.0 l/m 4.6 km/h (1 Bft) O-SO 15.6 C 23.5 C
19.06.2002 01:00 21.6 C 72 % 1019.0 hPa 0.0 l/m 9.2 km/h (2 Bft) O-SO 16.3 C 21.6 C
19.06.2002 02:00 20.6 C 80 % 1019.0 hPa 0.0 l/m 9.2 km/h (2 Bft) O-SO 17.0 C 20.6 C
19.06.2002 03:00 20.0 C 82 % 1019.0 hPa 0.0 l/m 5.5 km/h (1 Bft) O-SO 16.8 C 20.0 C
19.06.2002 04:00 19.2 C 88 % 1019.1 hPa 0.0 l/m 0.4 km/h (0 Bft) O-SO 17.3 C 19.2 C
19.06.2002 05:00 18.6 C 91 % 1019.7 hPa 0.0 l/m 0.8 km/h (0 Bft) O-SO 17.1 C 18.6 C
19.06.2002 06:00 18.6 C 88 % 1020.1 hPa 0.0 l/m 0.0 km/h (0 Bft) O-SO 16.6 C 18.6 C
19.06.2002 07:00 19.7 C 83 % 1020.1 hPa 0.0 l/m 1.5 km/h (1 Bft) O-SO 16.8 C 19.7 C
19.06.2002 08:00 21.9 C 70 % 1020.1 hPa 0.0 l/m 1.2 km/h (1 Bft) W-NW 16.2 C 21.9 C
19.06.2002 09:00 23.9 C 64 % 1020.1 hPa 0.0 l/m 0.8 km/h (0 Bft) NW 16.6 C 23.9 C
19.06.2002 10:00 25.8 C 58 % 1019.6 hPa 0.0 l/m 2.9 km/h (1 Bft) W-NW 16.8 C 25.8 C
19.06.2002 11:00 27.8 C 52 % 1019.0 hPa 0.0 l/m 2.1 km/h (1 Bft) W-NW 17.0 C 27.8 C
19.06.2002 12:00 29.6 C 46 % 1019.0 hPa 0.0 l/m 4.3 km/h (1 Bft) NW 16.9 C 29.6 C
19.06.2002 13:00 31.5 C 42 % 1018.3 hPa 0.0 l/m 6.0 km/h (2 Bft) O-SO 17.0 C 31.5 C
19.06.2002 14:00 33.0 C 38 % 1018.0 hPa 0.0 l/m 7.5 km/h (2 Bft) O-SO 16.5 C 33.0 C
19.06.2002 15:00 33.9 C 36 % 1017.4 hPa 0.0 l/m 7.0 km/h (2 Bft) O-SO 16.5 C 33.9 C
19.06.2002 16:00 34.2 C 35 % 1017.0 hPa 0.0 l/m 3.7 km/h (1 Bft) O-SO 16.6 C 34.2 C
19.06.2002 17:00 34.6 C 35 % 1016.2 hPa 0.0 l/m 0.8 km/h (0 Bft) W-NW 16.7 C 34.6 C
19.06.2002 18:00 31.7 C 45 % 1016.0 hPa 0.0 l/m 4.6 km/h (1 Bft) NW 18.3 C 31.7 C
19.06.2002 19:00 29.2 C 52 % 1017.0 hPa 0.0 l/m 5.6 km/h (1 Bft) N-NW 18.4 C 29.2 C
19.06.2002 20:00 27.3 C 58 % 1017.5 hPa 0.0 l/m 6.4 km/h (2 Bft) NO 18.2 C 27.3 C
19.06.2002 21:00 25.9 C 59 % 1018.0 hPa 0.0 l/m 2.3 km/h (1 Bft) O 17.2 C 25.9 C
19.06.2002 22:00 25.1 C 56 % 1018.9 hPa 0.0 l/m 3.1 km/h (1 Bft) N-NO 15.8 C 25.1 C
19.06.2002 23:00 24.0 C 60 % 1018.6 hPa 0.0 l/m 1.6 km/h (1 Bft) O-SO 15.7 C 24.0 C
20.06.2002 00:00 22.0 C 69 % 1017.7 hPa 0.0 l/m 2.3 km/h (1 Bft) O-SO 16.1 C 22.0 C
20.06.2002 01:00 20.8 C 76 % 1017.0 hPa 0.0 l/m 1.8 km/h (1 Bft) O-SO 16.4 C 20.8 C
20.06.2002 02:00 19.6 C 83 % 1017.0 hPa 0.0 l/m 0.9 km/h (0 Bft) O-SO 16.5 C 19.6 C
20.06.2002 03:00 19.4 C 86 % 1017.2 hPa 0.0 l/m 0.7 km/h (0 Bft) O-SO 17.0 C 19.4 C
20.06.2002 04:00 19.1 C 88 % 1017.6 hPa 0.0 l/m 2.1 km/h (1 Bft) O-SO 17.1 C 19.1 C
20.06.2002 05:00 20.5 C 81 % 1019.4 hPa 0.0 l/m 5.6 km/h (1 Bft) NW 17.1 C 20.5 C
20.06.2002 06:00 19.9 C 84 % 1019.0 hPa 0.0 l/m 3.8 km/h (1 Bft) O-SO 17.1 C 19.9 C
20.06.2002 07:00 20.1 C 82 % 1019.0 hPa 0.0 l/m 2.1 km/h (1 Bft) NW 16.9 C 20.1 C
20.06.2002 08:00 21.2 C 78 % 1019.0 hPa 0.0 l/m 1.3 km/h (1 Bft) NW 17.1 C 21.2 C
20.06.2002 09:00 23.2 C 67 % 1019.0 hPa 0.0 l/m 1.3 km/h (1 Bft) NW 16.7 C 23.2 C
20.06.2002 10:00 25.0 C 62 % 1019.0 hPa 0.0 l/m 1.5 km/h (1 Bft) SO 17.1 C 25.0 C
20.06.2002 11:00 27.4 C 54 % 1018.0 hPa 0.0 l/m 4.2 km/h (1 Bft) NW 17.2 C 27.4 C
20.06.2002 12:00 29.1 C 50 % 1018.0 hPa 0.0 l/m 2.2 km/h (1 Bft) N-NW 17.4 C 29.1 C
20.06.2002 13:00 29.6 C 45 % 1018.7 hPa 0.0 l/m 4.3 km/h (1 Bft) W-NW 16.4 C 29.6 C
20.06.2002 14:00 30.7 C 38 % 1018.5 hPa 0.0 l/m 9.4 km/h (2 Bft) NW 14.8 C 30.7 C
20.06.2002 15:00 27.5 C 43 % 1019.5 hPa 0.0 l/m 22.7 km/h (4 Bft) NW 13.9 C 27.5 C
20.06.2002 16:00 27.5 C 47 % 1019.1 hPa 0.0 l/m 1.7 km/h (1 Bft) O 15.2 C 27.5 C
20.06.2002 17:00 28.7 C 45 % 1019.0 hPa 0.0 l/m 11.2 km/h (2 Bft) NW 15.7 C 28.7 C
20.06.2002 18:00 29.0 C 52 % 1019.0 hPa 0.0 l/m 15.9 km/h (3 Bft) NW 18.1 C 29.0 C
20.06.2002 19:00 27.4 C 56 % 1019.0 hPa 0.0 l/m 21.8 km/h (4 Bft) NW 17.7 C 27.4 C
20.06.2002 20:00 25.5 C 61 % 1019.4 hPa 0.0 l/m 13.0 km/h (3 Bft) NW 17.5 C 25.5 C
20.06.2002 21:00 24.2 C 61 % 1020.1 hPa 0.0 l/m 2.2 km/h (1 Bft) O-SO 16.2 C 24.2 C
20.06.2002 22:00 23.2 C 66 % 1021.1 hPa 0.0 l/m 0.1 km/h (0 Bft) O-SO 16.6 C 23.2 C
20.06.2002 23:00 22.8 C 72 % 1021.4 hPa 0.0 l/m 0.4 km/h (0 Bft) W-NW 17.5 C 22.8 C
21.06.2002 00:00 20.8 C 81 % 1022.2 hPa 0.0 l/m 1.3 km/h (1 Bft) O-SO 17.4 C 20.8 C
21.06.2002 01:00 19.5 C 86 % 1021.6 hPa 0.0 l/m 0.4 km/h (0 Bft) O-SO 17.1 C 19.5 C
21.06.2002 02:00 18.3 C 88 % 1021.1 hPa 0.0 l/m 0.2 km/h (0 Bft) O-SO 16.3 C 18.3 C
21.06.2002 03:00 17.5 C 91 % 1021.1 hPa 0.0 l/m 0.0 km/h (0 Bft) N 16.0 C 17.5 C
21.06.2002 04:00 17.3 C 93 % 1021.1 hPa 0.0 l/m 0.0 km/h (0 Bft) N 16.2 C 17.3 C
21.06.2002 05:00 17.5 C 92 % 1021.1 hPa 0.0 l/m 0.0 km/h (0 Bft) N 16.1 C 17.5 C
21.06.2002 06:00 17.9 C 91 % 1021.1 hPa 0.0 l/m 0.7 km/h (0 Bft) O-SO 16.4 C 17.9 C
21.06.2002 07:00 18.9 C 86 % 1021.1 hPa 0.0 l/m 0.5 km/h (0 Bft) W 16.4 C 18.9 C
21.06.2002 08:00 20.6 C 79 % 1021.1 hPa 0.0 l/m 0.3 km/h (0 Bft) W-NW 16.8 C 20.6 C
21.06.2002 09:00 22.7 C 68 % 1020.5 hPa 0.0 l/m 0.4 km/h (0 Bft) W-NW 16.6 C 22.7 C
21.06.2002 10:00 24.6 C 63 % 1020.1 hPa 0.0 l/m 0.8 km/h (0 Bft) O-SO 17.1 C 24.6 C
21.06.2002 11:00 26.4 C 56 % 1020.1 hPa 0.0 l/m 2.3 km/h (1 Bft) O-SO 17.0 C 26.4 C
21.06.2002 12:00 27.3 C 53 % 1020.1 hPa 0.0 l/m 2.1 km/h (1 Bft) W-NW 16.9 C 27.3 C
21.06.2002 13:00 28.5 C 51 % 1019.3 hPa 0.0 l/m 1.6 km/h (1 Bft) W-NW 17.3 C 28.5 C
21.06.2002 14:00 29.3 C 47 % 1019.0 hPa 0.0 l/m 7.9 km/h (2 Bft) NW 16.8 C 29.3 C
21.06.2002 15:00 27.6 C 52 % 1019.0 hPa 0.0 l/m 14.0 km/h (3 Bft) W-NW 16.8 C 27.6 C
21.06.2002 16:00 28.8 C 52 % 1019.0 hPa 0.0 l/m 8.8 km/h (2 Bft) W-NW 18.0 C 28.8 C
21.06.2002 17:00 24.9 C 77 % 1019.7 hPa 0.9 l/m 2.8 km/h (1 Bft) O-SO 20.5 C 24.9 C
21.06.2002 18:00 25.1 C 69 % 1020.1 hPa 0.0 l/m 6.6 km/h (2 Bft) SO 19.0 C 25.1 C
21.06.2002 19:00 25.9 C 68 % 1020.1 hPa 0.0 l/m 1.5 km/h (1 Bft) O-SO 19.6 C 25.9 C
21.06.2002 20:00 23.6 C 79 % 1020.6 hPa 0.0 l/m 6.0 km/h (2 Bft) SO 19.7 C 23.6 C
21.06.2002 21:00 21.5 C 85 % 1021.1 hPa 0.0 l/m 10.2 km/h (2 Bft) O-SO 19.0 C 21.5 C
21.06.2002 22:00 20.5 C 93 % 1022.0 hPa 0.0 l/m 8.9 km/h (2 Bft) O-SO 19.3 C 20.5 C
21.06.2002 23:00 19.9 C 96 % 1022.2 hPa 0.0 l/m 6.5 km/h (2 Bft) O-SO 19.2 C 19.9 C
22.06.2002 00:00 19.5 C 97 % 1022.2 hPa 0.0 l/m 6.1 km/h (2 Bft) O-SO 19.0 C 19.5 C
22.06.2002 01:00 18.7 C 98 % 1022.2 hPa 0.0 l/m 0.0 km/h (0 Bft) N 18.3 C 18.7 C
22.06.2002 02:00 17.9 C 99 % 1022.0 hPa 0.0 l/m 0.0 km/h (0 Bft) N 17.7 C 17.9 C
22.06.2002 03:00 17.4 C 100 % 1021.3 hPa 0.0 l/m 0.0 km/h (0 Bft) N 17.3 C 17.4 C
22.06.2002 04:00 17.0 C 100 % 1022.2 hPa 0.0 l/m 0.0 km/h (0 Bft) N 17.0 C 17.0 C
22.06.2002 05:00 16.7 C 100 % 1022.2 hPa 0.0 l/m 0.5 km/h (0 Bft) O-SO 16.7 C 16.7 C
22.06.2002 06:00 17.6 C 100 % 1022.2 hPa 0.0 l/m 0.0 km/h (0 Bft) N 17.6 C 17.6 C
22.06.2002 07:00 18.3 C 98 % 1022.3 hPa 0.0 l/m 0.0 km/h (0 Bft) N 17.9 C 18.3 C
22.06.2002 08:00 19.5 C 91 % 1023.2 hPa 0.0 l/m 0.0 km/h (0 Bft) N 18.0 C 19.5 C
22.06.2002 09:00 21.7 C 81 % 1022.9 hPa 0.0 l/m 0.7 km/h (0 Bft) SO 18.3 C 21.7 C
22.06.2002 10:00 23.9 C 73 % 1022.2 hPa 0.0 l/m 2.2 km/h (1 Bft) O-SO 18.6 C 23.9 C
22.06.2002 11:00 26.2 C 63 % 1022.2 hPa 0.0 l/m 5.8 km/h (2 Bft) SO 18.6 C 26.2 C
22.06.2002 12:00 27.4 C 54 % 1022.0 hPa 0.0 l/m 3.8 km/h (1 Bft) W-NW 17.1 C 27.4 C
22.06.2002 13:00 28.8 C 48 % 1021.1 hPa 0.0 l/m 7.6 km/h (2 Bft) NW 16.8 C 28.8 C
22.06.2002 14:00 29.8 C 47 % 1021.1 hPa 0.0 l/m 10.3 km/h (2 Bft) W-NW 17.3 C 29.8 C
22.06.2002 15:00 30.5 C 45 % 1020.4 hPa 0.0 l/m 8.5 km/h (2 Bft) W-NW 17.2 C 30.5 C
22.06.2002 16:00 30.8 C 43 % 1020.1 hPa 0.0 l/m 6.4 km/h (2 Bft) NW 16.6 C 30.8 C
22.06.2002 17:00 31.1 C 45 % 1019.9 hPa 0.0 l/m 5.1 km/h (1 Bft) W-NW 17.6 C 31.1 C
22.06.2002 18:00 31.5 C 48 % 1019.0 hPa 0.0 l/m 3.5 km/h (1 Bft) W-NW 19.1 C 31.5 C
22.06.2002 19:00 30.4 C 54 % 1019.0 hPa 0.0 l/m 5.4 km/h (1 Bft) W-NW 19.9 C 30.4 C
22.06.2002 20:00 28.6 C 59 % 1019.0 hPa 0.0 l/m 1.3 km/h (1 Bft) W 19.9 C 28.6 C
22.06.2002 21:00 25.7 C 68 % 1019.0 hPa 0.0 l/m 0.2 km/h (0 Bft) SO 19.3 C 25.7 C
22.06.2002 22:00 23.2 C 79 % 1019.0 hPa 0.0 l/m 3.0 km/h (1 Bft) O-SO 19.3 C 23.2 C
22.06.2002 23:00 22.2 C 84 % 1019.0 hPa 0.0 l/m 4.4 km/h (1 Bft) O-SO 19.4 C 22.2 C
23.06.2002 00:00 21.2 C 89 % 1019.0 hPa 0.0 l/m 4.1 km/h (1 Bft) O-SO 19.4 C 21.2 C
23.06.2002 01:00 20.4 C 91 % 1019.0 hPa 0.0 l/m 0.3 km/h (0 Bft) O-SO 18.9 C 20.4 C
23.06.2002 02:00 19.7 C 94 % 1019.0 hPa 0.0 l/m 1.0 km/h (0 Bft) O-SO 18.7 C 19.7 C
23.06.2002 03:00 18.8 C 97 % 1019.0 hPa 0.0 l/m 0.7 km/h (0 Bft) O-SO 18.3 C 18.8 C
23.06.2002 04:00 18.2 C 99 % 1019.0 hPa 0.0 l/m 0.2 km/h (0 Bft) O-SO 18.0 C 18.2 C
23.06.2002 05:00 17.5 C 99 % 1019.0 hPa 0.0 l/m 0.0 km/h (0 Bft) N 17.4 C 17.5 C
23.06.2002 06:00 17.7 C 98 % 1019.8 hPa 0.0 l/m 0.0 km/h (0 Bft) N 17.5 C 17.7 C
23.06.2002 07:00 18.8 C 94 % 1020.1 hPa 0.0 l/m 0.0 km/h (0 Bft) N 17.8 C 18.8 C
23.06.2002 08:00 20.8 C 86 % 1020.1 hPa 0.0 l/m 0.4 km/h (0 Bft) O-SO 18.3 C 20.8 C
23.06.2002 09:00 23.6 C 75 % 1020.1 hPa 0.0 l/m 1.6 km/h (1 Bft) W-NW 18.9 C 23.6 C
23.06.2002 10:00 26.2 C 63 % 1020.1 hPa 0.0 l/m 3.8 km/h (1 Bft) W-NW 18.7 C 26.2 C
23.06.2002 11:00 28.1 C 45 % 1020.1 hPa 0.0 l/m 8.9 km/h (2 Bft) W-NW 15.0 C 28.1 C
23.06.2002 12:00 29.4 C 41 % 1019.2 hPa 0.0 l/m 5.0 km/h (1 Bft) NW 14.9 C 29.4 C
23.06.2002 13:00 30.5 C 41 % 1018.6 hPa 0.0 l/m 2.9 km/h (1 Bft) W-NW 15.7 C 30.5 C
23.06.2002 14:00 32.0 C 38 % 1017.9 hPa 0.0 l/m 4.0 km/h (1 Bft) W 15.9 C 32.0 C
23.06.2002 15:00 32.6 C 37 % 1017.0 hPa 0.0 l/m 6.7 km/h (2 Bft) W-NW 15.9 C 32.6 C
23.06.2002 16:00 33.5 C 36 % 1016.1 hPa 0.0 l/m 4.7 km/h (1 Bft) W-NW 16.4 C 33.5 C
23.06.2002 17:00 33.4 C 35 % 1015.9 hPa 0.0 l/m 4.1 km/h (1 Bft) W-NW 15.9 C 33.4 C
23.06.2002 18:00 32.8 C 44 % 1014.9 hPa 0.0 l/m 9.1 km/h (2 Bft) W-NW 18.8 C 32.8 C
23.06.2002 19:00 30.4 C 52 % 1014.9 hPa 0.0 l/m 10.6 km/h (2 Bft) W-NW 19.3 C 30.4 C
23.06.2002 20:00 28.7 C 54 % 1014.9 hPa 0.0 l/m 4.6 km/h (1 Bft) NW 18.5 C 28.7 C
23.06.2002 21:00 26.6 C 57 % 1015.7 hPa 0.0 l/m 2.7 km/h (1 Bft) W-NW 17.5 C 26.6 C
23.06.2002 22:00 25.2 C 59 % 1015.9 hPa 0.0 l/m 4.0 km/h (1 Bft) NO 16.5 C 25.2 C
23.06.2002 23:00 24.2 C 61 % 1016.1 hPa 0.0 l/m 0.3 km/h (0 Bft) N 16.2 C 24.2 C
Min-Datum _ 17.06.02 18.06.02 23.06.02 - 17.06.02 - 18.06.02 17.06.02
_ Min-Zeit 05:16 16:29 18:00 - 00:07 - 22:32 05:16
Minimum _ 15.2 C 25 % 1014.9 hPa - 0.0 km/h (0 Bft) - 10.8 C 15.2 C
Max-Datum _ 18.06.02 17.06.02 22.06.02 21.06.02 20.06.02 - 21.06.02 18.06.02
_ Max-Zeit 17:32 05:34 07:12 17:14 15:25 - 17:44 17:32
Maximum _ 35.7 C 100 % 1023.2 hPa 0.9 l/m 59.5 km/h
NW (7 Bft)
- 21.6 C 35.7 C
Durchschnitt _ 24.7 C 67 % 1019.3 hPa #0.9 l/m 3.6 km/h (1 Bft) O-SO 17.1 C 24.7 C

Durchschnitt Minimum Temp.23.6 C
Durchschnitt Maximum Temp.25.7 C
© Kaiko 2002